sensor_id;sensor_type;location;lat;lon;timestamp;pressure;altitude;pressure_sealevel;temperature;humidity
77147;BME280;66121;52.584;9.694;2024-03-02T00:00:54;99938.16;;;8.00;88.07
77147;BME280;66121;52.584;9.694;2024-03-02T00:03:19;99939.72;;;8.04;88.01
77147;BME280;66121;52.584;9.694;2024-03-02T00:05:49;99941.28;;;8.02;88.10
77147;BME280;66121;52.584;9.694;2024-03-02T00:08:22;99923.16;;;7.87;88.24
77147;BME280;66121;52.584;9.694;2024-03-02T00:10:47;99952.28;;;8.02;88.69
77147;BME280;66121;52.584;9.694;2024-03-02T00:13:13;99941.72;;;8.07;88.30
77147;BME280;66121;52.584;9.694;2024-03-02T00:18:09;99929.19;;;8.20;87.92
77147;BME280;66121;52.584;9.694;2024-03-02T00:20:35;99913.97;;;8.26;87.24
77147;BME280;66121;52.584;9.694;2024-03-02T00:23:04;99917.06;;;8.21;86.89
77147;BME280;66121;52.584;9.694;2024-03-02T00:25:47;99907.22;;;8.17;86.96
77147;BME280;66121;52.584;9.694;2024-03-02T00:28:19;99926.16;;;8.29;87.15
77147;BME280;66121;52.584;9.694;2024-03-02T00:30:51;99924.13;;;8.26;86.40
77147;BME280;66121;52.584;9.694;2024-03-02T00:33:19;99926.09;;;8.25;86.28
77147;BME280;66121;52.584;9.694;2024-03-02T00:35:45;99927.19;;;8.10;86.79
77147;BME280;66121;52.584;9.694;2024-03-02T00:38:10;99938.59;;;8.12;87.41
77147;BME280;66121;52.584;9.694;2024-03-02T00:40:36;99951.88;;;8.00;87.95
77147;BME280;66121;52.584;9.694;2024-03-02T00:43:02;99953.53;;;8.15;87.77
77147;BME280;66121;52.584;9.694;2024-03-02T00:45:28;99960.56;;;8.09;88.10
77147;BME280;66121;52.584;9.694;2024-03-02T00:47:54;99962.41;;;7.91;88.77
77147;BME280;66121;52.584;9.694;2024-03-02T00:50:19;99960.00;;;7.82;89.26
77147;BME280;66121;52.584;9.694;2024-03-02T00:52:46;99972.97;;;7.85;89.54
77147;BME280;66121;52.584;9.694;2024-03-02T00:55:13;99980.38;;;7.81;89.60
77147;BME280;66121;52.584;9.694;2024-03-02T00:57:39;99991.00;;;7.83;90.19
77147;BME280;66121;52.584;9.694;2024-03-02T01:00:05;99996.91;;;7.85;90.06
77147;BME280;66121;52.584;9.694;2024-03-02T01:02:35;100001.94;;;7.79;90.58
77147;BME280;66121;52.584;9.694;2024-03-02T01:05:00;99994.78;;;7.64;90.63
77147;BME280;66121;52.584;9.694;2024-03-02T01:07:26;100011.69;;;7.69;91.44
77147;BME280;66121;52.584;9.694;2024-03-02T01:09:51;100004.94;;;7.60;91.83
77147;BME280;66121;52.584;9.694;2024-03-02T01:12:17;100017.81;;;7.52;92.49
77147;BME280;66121;52.584;9.694;2024-03-02T01:14:42;100024.06;;;7.49;92.78
77147;BME280;66121;52.584;9.694;2024-03-02T01:17:07;100015.47;;;7.54;93.11
77147;BME280;66121;52.584;9.694;2024-03-02T01:19:33;100020.16;;;7.50;93.18
77147;BME280;66121;52.584;9.694;2024-03-02T01:21:58;100009.81;;;7.37;93.39
77147;BME280;66121;52.584;9.694;2024-03-02T01:24:23;100030.63;;;7.38;93.63
77147;BME280;66121;52.584;9.694;2024-03-02T01:26:49;100027.09;;;7.37;94.38
77147;BME280;66121;52.584;9.694;2024-03-02T01:29:14;100025.47;;;7.33;94.73
77147;BME280;66121;52.584;9.694;2024-03-02T01:31:39;100028.66;;;7.38;95.29
77147;BME280;66121;52.584;9.694;2024-03-02T01:34:07;100022.00;;;7.39;95.61
77147;BME280;66121;52.584;9.694;2024-03-02T01:36:32;100009.47;;;7.42;94.81
77147;BME280;66121;52.584;9.694;2024-03-02T01:38:58;100000.00;;;7.36;95.02
77147;BME280;66121;52.584;9.694;2024-03-02T01:41:23;100012.97;;;7.35;95.13
77147;BME280;66121;52.584;9.694;2024-03-02T01:43:48;99999.94;;;7.29;95.39
77147;BME280;66121;52.584;9.694;2024-03-02T01:46:14;99999.50;;;7.23;95.98
77147;BME280;66121;52.584;9.694;2024-03-02T01:48:39;99999.09;;;7.21;96.03
77147;BME280;66121;52.584;9.694;2024-03-02T01:51:05;99995.53;;;7.17;96.65
77147;BME280;66121;52.584;9.694;2024-03-02T01:53:31;99998.25;;;7.17;96.71
77147;BME280;66121;52.584;9.694;2024-03-02T01:55:57;99995.13;;;7.15;97.03
77147;BME280;66121;52.584;9.694;2024-03-02T01:58:22;99990.41;;;7.15;97.37
77147;BME280;66121;52.584;9.694;2024-03-02T02:00:48;99988.84;;;7.18;97.39
77147;BME280;66121;52.584;9.694;2024-03-02T02:03:13;99987.25;;;7.13;97.71
77147;BME280;66121;52.584;9.694;2024-03-02T02:05:39;99978.59;;;7.11;97.78
77147;BME280;66121;52.584;9.694;2024-03-02T02:08:04;99973.50;;;7.10;97.84
77147;BME280;66121;52.584;9.694;2024-03-02T02:10:30;99980.59;;;7.14;98.15
77147;BME280;66121;52.584;9.694;2024-03-02T02:12:56;99972.72;;;7.09;97.89
77147;BME280;66121;52.584;9.694;2024-03-02T02:15:26;99975.81;;;7.08;98.31
77147;BME280;66121;52.584;9.694;2024-03-02T02:17:52;99974.31;;;7.14;98.29
77147;BME280;66121;52.584;9.694;2024-03-02T02:20:18;99971.88;;;7.05;98.68
77147;BME280;66121;52.584;9.694;2024-03-02T02:22:57;99966.53;;;7.20;98.68
77147;BME280;66121;52.584;9.694;2024-03-02T02:25:23;99960.66;;;7.18;98.65
77147;BME280;66121;52.584;9.694;2024-03-02T02:27:48;99963.41;;;7.18;98.74
77147;BME280;66121;52.584;9.694;2024-03-02T02:30:18;99948.81;;;7.10;98.75
77147;BME280;66121;52.584;9.694;2024-03-02T02:32:44;99945.34;;;7.17;99.05
77147;BME280;66121;52.584;9.694;2024-03-02T02:35:09;99953.63;;;7.20;99.01
77147;BME280;66121;52.584;9.694;2024-03-02T02:37:34;99940.78;;;7.31;98.46
77147;BME280;66121;52.584;9.694;2024-03-02T02:39:59;99925.91;;;7.32;98.35
77147;BME280;66121;52.584;9.694;2024-03-02T02:42:25;99938.03;;;7.31;98.10
77147;BME280;66121;52.584;9.694;2024-03-02T02:44:50;99926.75;;;7.40;98.09
77147;BME280;66121;52.584;9.694;2024-03-02T02:47:15;99923.28;;;7.50;97.34
77147;BME280;66121;52.584;9.694;2024-03-02T02:49:41;99920.53;;;7.50;97.01
77147;BME280;66121;52.584;9.694;2024-03-02T02:52:07;99921.75;;;7.52;96.53
77147;BME280;66121;52.584;9.694;2024-03-02T02:54:32;99915.06;;;7.53;96.37
77147;BME280;66121;52.584;9.694;2024-03-02T02:56:57;99900.09;;;7.40;96.49
77147;BME280;66121;52.584;9.694;2024-03-02T02:59:22;99909.16;;;7.48;96.39
77147;BME280;66121;52.584;9.694;2024-03-02T03:01:48;99920.47;;;7.39;96.46
77147;BME280;66121;52.584;9.694;2024-03-02T03:04:13;99921.16;;;7.29;96.81
77147;BME280;66121;52.584;9.694;2024-03-02T03:06:39;99919.56;;;7.28;97.05
77147;BME280;66121;52.584;9.694;2024-03-02T03:09:04;99917.91;;;7.17;97.72
77147;BME280;66121;52.584;9.694;2024-03-02T03:11:29;99935.63;;;7.23;97.81
77147;BME280;66121;52.584;9.694;2024-03-02T03:13:55;99927.41;;;7.26;97.61
77147;BME280;66121;52.584;9.694;2024-03-02T03:16:20;99920.06;;;7.37;97.54
77147;BME280;66121;52.584;9.694;2024-03-02T03:18:46;99914.44;;;7.23;97.80
77147;BME280;66121;52.584;9.694;2024-03-02T03:21:11;99923.16;;;7.32;97.78
77147;BME280;66121;52.584;9.694;2024-03-02T03:23:36;99913.63;;;7.19;97.43
77147;BME280;66121;52.584;9.694;2024-03-02T03:26:02;99925.75;;;7.14;97.83
77147;BME280;66121;52.584;9.694;2024-03-02T03:28:28;99932.41;;;7.17;98.72
77147;BME280;66121;52.584;9.694;2024-03-02T03:30:53;99928.06;;;7.12;98.73
77147;BME280;66121;52.584;9.694;2024-03-02T03:33:19;99929.22;;;7.11;98.84
77147;BME280;66121;52.584;9.694;2024-03-02T03:35:44;99931.25;;;7.18;98.97
77147;BME280;66121;52.584;9.694;2024-03-02T03:38:09;99930.78;;;7.09;98.79
77147;BME280;66121;52.584;9.694;2024-03-02T03:40:34;99925.28;;;7.09;99.08
77147;BME280;66121;52.584;9.694;2024-03-02T03:43:00;99917.78;;;7.02;99.14
77147;BME280;66121;52.584;9.694;2024-03-02T03:45:25;99920.50;;;6.99;99.39
77147;BME280;66121;52.584;9.694;2024-03-02T03:47:52;99929.56;;;7.03;99.54
77147;BME280;66121;52.584;9.694;2024-03-02T03:50:17;99914.22;;;6.98;99.15
77147;BME280;66121;52.584;9.694;2024-03-02T03:52:43;99921.34;;;7.06;99.31
77147;BME280;66121;52.584;9.694;2024-03-02T03:55:08;99922.88;;;7.04;99.14
77147;BME280;66121;52.584;9.694;2024-03-02T03:57:35;99903.59;;;6.93;99.48
77147;BME280;66121;52.584;9.694;2024-03-02T04:00:00;99913.84;;;7.00;99.26
77147;BME280;66121;52.584;9.694;2024-03-02T04:02:26;99908.31;;;6.93;99.18
77147;BME280;66121;52.584;9.694;2024-03-02T04:04:51;99913.75;;;6.89;99.31
77147;BME280;66121;52.584;9.694;2024-03-02T04:07:16;99922.81;;;6.97;99.61
77147;BME280;66121;52.584;9.694;2024-03-02T04:09:42;99925.97;;;6.99;99.39
77147;BME280;66121;52.584;9.694;2024-03-02T04:12:07;99923.63;;;6.97;99.73
77147;BME280;66121;52.584;9.694;2024-03-02T04:14:33;99916.09;;;6.91;99.07
77147;BME280;66121;52.584;9.694;2024-03-02T04:16:58;99919.63;;;6.91;99.17
77147;BME280;66121;52.584;9.694;2024-03-02T04:19:23;99927.50;;;6.93;98.96
77147;BME280;66121;52.584;9.694;2024-03-02T04:21:49;99906.66;;;6.85;98.78
77147;BME280;66121;52.584;9.694;2024-03-02T04:24:14;99916.16;;;6.94;98.73
77147;BME280;66121;52.584;9.694;2024-03-02T04:26:39;99917.63;;;6.85;99.20
77147;BME280;66121;52.584;9.694;2024-03-02T04:29:05;99920.03;;;6.90;98.87
77147;BME280;66121;52.584;9.694;2024-03-02T04:31:30;99927.38;;;6.82;98.98
77147;BME280;66121;52.584;9.694;2024-03-02T04:33:55;99939.84;;;6.76;99.02
77147;BME280;66121;52.584;9.694;2024-03-02T04:36:21;99943.59;;;6.61;98.97
77147;BME280;66121;52.584;9.694;2024-03-02T04:38:46;99950.19;;;6.53;99.45
77147;BME280;66121;52.584;9.694;2024-03-02T04:41:12;99963.78;;;6.46;100.00
77147;BME280;66121;52.584;9.694;2024-03-02T04:43:37;99965.34;;;6.47;100.00
77147;BME280;66121;52.584;9.694;2024-03-02T04:46:03;99952.56;;;6.25;100.00
77147;BME280;66121;52.584;9.694;2024-03-02T04:48:28;99954.91;;;6.26;100.00
77147;BME280;66121;52.584;9.694;2024-03-02T04:50:54;99969.47;;;6.30;100.00
77147;BME280;66121;52.584;9.694;2024-03-02T04:53:19;99967.81;;;6.26;100.00
77147;BME280;66121;52.584;9.694;2024-03-02T04:55:44;99967.81;;;6.26;100.00
77147;BME280;66121;52.584;9.694;2024-03-02T04:58:19;99977.72;;;6.34;100.00
77147;BME280;66121;52.584;9.694;2024-03-02T05:00:44;99960.44;;;6.30;100.00
77147;BME280;66121;52.584;9.694;2024-03-02T05:03:11;99968.56;;;6.23;100.00
77147;BME280;66121;52.584;9.694;2024-03-02T05:05:36;99964.25;;;6.22;100.00
77147;BME280;66121;52.584;9.694;2024-03-02T05:08:03;99962.56;;;6.14;100.00
77147;BME280;66121;52.584;9.694;2024-03-02T05:10:29;99960.91;;;6.06;100.00
77147;BME280;66121;52.584;9.694;2024-03-02T05:12:54;99964.41;;;6.06;100.00
77147;BME280;66121;52.584;9.694;2024-03-02T05:15:25;99952.34;;;6.11;100.00
77147;BME280;66121;52.584;9.694;2024-03-02T05:17:51;99962.06;;;6.05;100.00
77147;BME280;66121;52.584;9.694;2024-03-02T05:20:16;99960.13;;;6.05;100.00
77147;BME280;66121;52.584;9.694;2024-03-02T05:22:42;99953.75;;;5.98;100.00
77147;BME280;66121;52.584;9.694;2024-03-02T05:25:07;99955.28;;;5.95;100.00
77147;BME280;66121;52.584;9.694;2024-03-02T05:27:34;99947.69;;;5.85;100.00
77147;BME280;66121;52.584;9.694;2024-03-02T05:30:00;99942.63;;;5.87;100.00
77147;BME280;66121;52.584;9.694;2024-03-02T05:32:25;99960.44;;;6.00;100.00
77147;BME280;66121;52.584;9.694;2024-03-02T05:34:51;99942.25;;;5.89;100.00
77147;BME280;66121;52.584;9.694;2024-03-02T05:37:17;99957.31;;;6.02;100.00
77147;BME280;66121;52.584;9.694;2024-03-02T05:39:42;99962.75;;;5.98;100.00
77147;BME280;66121;52.584;9.694;2024-03-02T05:42:08;99962.69;;;5.95;100.00
77147;BME280;66121;52.584;9.694;2024-03-02T05:44:34;99962.63;;;5.91;100.00
77147;BME280;66121;52.584;9.694;2024-03-02T05:46:59;99965.38;;;5.91;100.00
77147;BME280;66121;52.584;9.694;2024-03-02T05:49:25;99957.94;;;5.92;100.00
77147;BME280;66121;52.584;9.694;2024-03-02T05:51:50;99959.53;;;5.93;100.00
77147;BME280;66121;52.584;9.694;2024-03-02T05:54:15;99963.09;;;5.93;100.00
77147;BME280;66121;52.584;9.694;2024-03-02T05:56:41;99967.94;;;6.07;100.00
77147;BME280;66121;52.584;9.694;2024-03-02T05:59:06;99968.66;;;6.00;100.00
77147;BME280;66121;52.584;9.694;2024-03-02T06:01:42;99963.91;;;5.97;100.00
77147;BME280;66121;52.584;9.694;2024-03-02T06:04:08;99958.38;;;5.94;100.00
77147;BME280;66121;52.584;9.694;2024-03-02T06:06:33;99947.19;;;5.79;100.00
77147;BME280;66121;52.584;9.694;2024-03-02T06:09:00;99953.28;;;5.69;100.00
77147;BME280;66121;52.584;9.694;2024-03-02T06:11:25;99972.56;;;5.76;100.00
77147;BME280;66121;52.584;9.694;2024-03-02T06:13:51;99959.81;;;5.61;100.00
77147;BME280;66121;52.584;9.694;2024-03-02T06:16:16;99961.81;;;5.64;100.00
77147;BME280;66121;52.584;9.694;2024-03-02T06:18:41;99968.69;;;5.77;100.00
77147;BME280;66121;52.584;9.694;2024-03-02T06:21:07;99968.44;;;5.86;100.00
77147;BME280;66121;52.584;9.694;2024-03-02T06:23:33;99969.31;;;5.94;100.00
77147;BME280;66121;52.584;9.694;2024-03-02T06:25:58;99953.56;;;6.13;100.00
77147;BME280;66121;52.584;9.694;2024-03-02T06:28:24;99973.81;;;6.35;100.00
77147;BME280;66121;52.584;9.694;2024-03-02T06:30:49;99976.19;;;6.36;100.00
77147;BME280;66121;52.584;9.694;2024-03-02T06:33:14;99944.84;;;6.34;100.00
77147;BME280;66121;52.584;9.694;2024-03-02T06:35:40;99950.84;;;6.43;100.00
77147;BME280;66121;52.584;9.694;2024-03-02T06:38:06;99946.84;;;6.37;100.00
77147;BME280;66121;52.584;9.694;2024-03-02T06:40:31;99954.47;;;6.54;100.00
77147;BME280;66121;52.584;9.694;2024-03-02T06:42:57;99949.00;;;6.54;100.00
77147;BME280;66121;52.584;9.694;2024-03-02T06:45:22;99956.06;;;6.55;100.00
77147;BME280;66121;52.584;9.694;2024-03-02T06:47:47;99959.59;;;6.56;100.00
77147;BME280;66121;52.584;9.694;2024-03-02T06:50:12;99954.47;;;6.54;100.00
77147;BME280;66121;52.584;9.694;2024-03-02T06:52:38;99960.09;;;6.65;100.00
77147;BME280;66121;52.584;9.694;2024-03-02T06:55:04;99949.91;;;6.65;100.00
77147;BME280;66121;52.584;9.694;2024-03-02T06:57:30;99933.81;;;6.60;100.00
77147;BME280;66121;52.584;9.694;2024-03-02T06:59:55;99953.97;;;6.78;100.00
77147;BME280;66121;52.584;9.694;2024-03-02T07:02:27;99951.28;;;6.82;100.00
77147;BME280;66121;52.584;9.694;2024-03-02T07:04:54;99946.66;;;6.89;100.00
77147;BME280;66121;52.584;9.694;2024-03-02T07:07:19;99941.16;;;6.89;100.00
77147;BME280;66121;52.584;9.694;2024-03-02T07:09:45;99936.44;;;6.86;100.00
77147;BME280;66121;52.584;9.694;2024-03-02T07:12:10;99936.19;;;7.02;100.00
77147;BME280;66121;52.584;9.694;2024-03-02T07:14:35;99917.00;;;7.02;100.00
77147;BME280;66121;52.584;9.694;2024-03-02T07:17:35;99938.31;;;7.19;100.00
77147;BME280;66121;52.584;9.694;2024-03-02T07:20:02;99945.84;;;7.29;100.00
77147;BME280;66121;52.584;9.694;2024-03-02T07:22:28;99940.81;;;7.35;100.00
77147;BME280;66121;52.584;9.694;2024-03-02T07:24:54;99932.97;;;7.37;100.00
77147;BME280;66121;52.584;9.694;2024-03-02T07:27:19;99920.41;;;7.36;100.00
77147;BME280;66121;52.584;9.694;2024-03-02T07:29:44;99935.06;;;7.50;100.00
77147;BME280;66121;52.584;9.694;2024-03-02T07:32:10;99935.47;;;7.56;100.00
77147;BME280;66121;52.584;9.694;2024-03-02T07:34:36;99945.75;;;7.66;99.74
77147;BME280;66121;52.584;9.694;2024-03-02T07:37:03;99932.00;;;7.62;99.23
77147;BME280;66121;52.584;9.694;2024-03-02T07:39:28;99919.47;;;7.65;98.79
77147;BME280;66121;52.584;9.694;2024-03-02T07:41:54;99932.84;;;7.73;98.82
77147;BME280;66121;52.584;9.694;2024-03-02T07:44:20;99930.16;;;7.77;98.93
77147;BME280;66121;52.584;9.694;2024-03-02T07:46:46;99936.00;;;7.75;98.77
77147;BME280;66121;52.584;9.694;2024-03-02T07:49:13;99925.47;;;7.81;98.05
77147;BME280;66121;52.584;9.694;2024-03-02T07:51:41;99919.59;;;7.83;98.02
77147;BME280;66121;52.584;9.694;2024-03-02T07:54:07;99924.34;;;7.89;97.99
77147;BME280;66121;52.584;9.694;2024-03-02T07:56:32;99925.13;;;7.93;97.57
77147;BME280;66121;52.584;9.694;2024-03-02T07:58:58;99917.63;;;7.83;97.04
77147;BME280;66121;52.584;9.694;2024-03-02T08:01:32;99924.78;;;7.98;97.18
77147;BME280;66121;52.584;9.694;2024-03-02T08:04:01;99927.94;;;8.04;97.23
77147;BME280;66121;52.584;9.694;2024-03-02T08:06:28;99922.50;;;8.18;96.74
77147;BME280;66121;52.584;9.694;2024-03-02T08:09:00;99921.78;;;8.24;96.14
77147;BME280;66121;52.584;9.694;2024-03-02T08:11:26;99906.13;;;8.35;95.66
77147;BME280;66121;52.584;9.694;2024-03-02T08:13:52;99883.00;;;8.43;95.02
77147;BME280;66121;52.584;9.694;2024-03-02T08:16:20;99878.31;;;8.58;93.62
77147;BME280;66121;52.584;9.694;2024-03-02T08:18:49;99875.22;;;8.74;92.94
77147;BME280;66121;52.584;9.694;2024-03-02T08:21:15;99857.16;;;8.83;92.06
77147;BME280;66121;52.584;9.694;2024-03-02T08:23:41;99857.97;;;8.94;91.33
77147;BME280;66121;52.584;9.694;2024-03-02T08:26:10;99851.28;;;8.92;90.86
77147;BME280;66121;52.584;9.694;2024-03-02T08:28:36;99842.63;;;9.07;89.94
77147;BME280;66121;52.584;9.694;2024-03-02T08:31:07;99836.34;;;9.21;89.28
77147;BME280;66121;52.584;9.694;2024-03-02T08:33:33;99836.31;;;9.35;88.70
77147;BME280;66121;52.584;9.694;2024-03-02T08:35:59;99835.09;;;9.61;88.16
77147;BME280;66121;52.584;9.694;2024-03-02T08:38:24;99811.88;;;9.65;87.04
77147;BME280;66121;52.584;9.694;2024-03-02T08:40:50;99801.22;;;9.67;85.83
77147;BME280;66121;52.584;9.694;2024-03-02T08:43:15;99796.03;;;9.94;85.41
77147;BME280;66121;52.584;9.694;2024-03-02T08:45:41;99781.09;;;9.92;84.21
77147;BME280;66121;52.584;9.694;2024-03-02T08:48:09;99780.94;;;10.27;83.98
77147;BME280;66121;52.584;9.694;2024-03-02T08:50:35;99757.97;;;10.44;83.05
77147;BME280;66121;52.584;9.694;2024-03-02T08:53:03;99726.44;;;10.49;82.35
77147;BME280;66121;52.584;9.694;2024-03-02T08:55:28;99705.16;;;10.49;81.20
77147;BME280;66121;52.584;9.694;2024-03-02T08:57:53;99717.97;;;10.70;80.61
77147;BME280;66121;52.584;9.694;2024-03-02T09:00:19;99697.50;;;10.67;79.52
77147;BME280;66121;52.584;9.694;2024-03-02T09:02:45;99716.03;;;11.08;79.79
77147;BME280;66121;52.584;9.694;2024-03-02T09:05:10;99681.84;;;10.98;78.62
77147;BME280;66121;52.584;9.694;2024-03-02T09:07:36;99655.78;;;11.36;78.85
77147;BME280;66121;52.584;9.694;2024-03-02T09:10:04;99621.28;;;11.18;76.38
77147;BME280;66121;52.584;9.694;2024-03-02T09:12:29;99653.22;;;11.19;76.05
77147;BME280;66121;52.584;9.694;2024-03-02T09:14:55;99655.88;;;10.92;76.36
77147;BME280;66121;52.584;9.694;2024-03-02T09:17:20;99643.63;;;10.93;75.02
77147;BME280;66121;52.584;9.694;2024-03-02T09:19:45;99631.16;;;11.15;74.14
77147;BME280;66121;52.584;9.694;2024-03-02T09:22:11;99622.47;;;11.17;73.75
77147;BME280;66121;52.584;9.694;2024-03-02T09:24:36;99627.25;;;11.13;74.00
77147;BME280;66121;52.584;9.694;2024-03-02T09:27:02;99626.75;;;10.87;73.35
77147;BME280;66121;52.584;9.694;2024-03-02T09:29:27;99634.34;;;10.76;74.18
77147;BME280;66121;52.584;9.694;2024-03-02T09:31:52;99637.44;;;10.82;74.36
77147;BME280;66121;52.584;9.694;2024-03-02T09:34:18;99636.53;;;10.92;74.10
77147;BME280;66121;52.584;9.694;2024-03-02T09:36:43;99643.91;;;11.06;73.92
77147;BME280;66121;52.584;9.694;2024-03-02T09:39:09;99618.50;;;10.84;73.69
77147;BME280;66121;52.584;9.694;2024-03-02T09:41:37;99634.53;;;10.96;73.71
77147;BME280;66121;52.584;9.694;2024-03-02T09:44:04;99638.22;;;10.82;73.87
77147;BME280;66121;52.584;9.694;2024-03-02T09:46:30;99652.72;;;10.93;73.83
77147;BME280;66121;52.584;9.694;2024-03-02T09:48:56;99647.19;;;10.93;74.04
77147;BME280;66121;52.584;9.694;2024-03-02T09:51:21;99672.41;;;10.92;74.16
77147;BME280;66121;52.584;9.694;2024-03-02T09:53:47;99674.44;;;10.88;73.59
77147;BME280;66121;52.584;9.694;2024-03-02T09:56:13;99687.44;;;10.91;74.16
77147;BME280;66121;52.584;9.694;2024-03-02T09:58:39;99685.91;;;10.86;73.91
77147;BME280;66121;52.584;9.694;2024-03-02T10:01:07;99700.47;;;10.87;74.08
77147;BME280;66121;52.584;9.694;2024-03-02T10:03:33;99692.50;;;10.96;73.94
77147;BME280;66121;52.584;9.694;2024-03-02T10:06:27;99679.25;;;10.80;73.51
77147;BME280;66121;52.584;9.694;2024-03-02T10:08:53;99697.47;;;10.74;74.06
77147;BME280;66121;52.584;9.694;2024-03-02T10:11:33;99718.66;;;10.81;74.15
77147;BME280;66121;52.584;9.694;2024-03-02T10:14:11;99719.41;;;10.85;74.55
77147;BME280;66121;52.584;9.694;2024-03-02T10:16:42;99711.00;;;10.99;73.86
77147;BME280;66121;52.584;9.694;2024-03-02T10:19:28;99703.50;;;10.99;74.14
77147;BME280;66121;52.584;9.694;2024-03-02T10:21:57;99698.03;;;10.92;73.51
77147;BME280;66121;52.584;9.694;2024-03-02T10:24:23;99696.78;;;11.04;73.18
77147;BME280;66121;52.584;9.694;2024-03-02T10:26:49;99683.69;;;11.08;72.71
77147;BME280;66121;52.584;9.694;2024-03-02T10:29:15;99687.59;;;11.48;72.42
77147;BME280;66121;52.584;9.694;2024-03-02T10:31:45;99658.53;;;11.67;71.59
77147;BME280;66121;52.584;9.694;2024-03-02T10:34:13;99650.75;;;12.15;70.58
77147;BME280;66121;52.584;9.694;2024-03-02T10:36:43;99587.31;;;12.04;69.03
77147;BME280;66121;52.584;9.694;2024-03-02T10:39:10;99602.06;;;12.21;69.29
77147;BME280;66121;52.584;9.694;2024-03-02T10:41:38;99595.03;;;12.40;68.92
77147;BME280;66121;52.584;9.694;2024-03-02T10:44:05;99570.47;;;12.84;68.14
77147;BME280;66121;52.584;9.694;2024-03-02T10:46:32;99536.09;;;13.02;66.28
77147;BME280;66121;52.584;9.694;2024-03-02T10:49:00;99524.63;;;13.03;65.68
77147;BME280;66121;52.584;9.694;2024-03-02T10:51:27;99520.09;;;12.73;65.40
77147;BME280;66121;52.584;9.694;2024-03-02T10:53:54;99526.53;;;13.26;65.61
77147;BME280;66121;52.584;9.694;2024-03-02T10:56:28;99520.94;;;13.45;63.96
77147;BME280;66121;52.584;9.694;2024-03-02T10:59:05;99515.06;;;13.43;63.75
77147;BME280;66121;52.584;9.694;2024-03-02T11:01:32;99515.31;;;12.74;64.22
77147;BME280;66121;52.584;9.694;2024-03-02T11:03:58;99565.72;;;13.05;65.01
77147;BME280;66121;52.584;9.694;2024-03-02T11:06:26;99578.34;;;13.97;64.84
77147;BME280;66121;52.584;9.694;2024-03-02T11:08:55;99507.88;;;13.94;63.36
77147;BME280;66121;52.584;9.694;2024-03-02T11:11:28;99500.97;;;13.70;62.31
77147;BME280;66121;52.584;9.694;2024-03-02T11:13:57;99537.59;;;14.10;63.79
77147;BME280;66121;52.584;9.694;2024-03-02T11:16:35;99536.22;;;14.02;63.29
77147;BME280;66121;52.584;9.694;2024-03-02T11:19:05;99499.06;;;13.83;62.24
77147;BME280;66121;52.584;9.694;2024-03-02T11:21:34;99520.88;;;13.81;62.50
77147;BME280;66121;52.584;9.694;2024-03-02T11:24:00;99544.88;;;14.04;63.18
77147;BME280;66121;52.584;9.694;2024-03-02T11:26:27;99509.78;;;13.81;62.34
77147;BME280;66121;52.584;9.694;2024-03-02T11:28:54;99537.25;;;13.24;62.83
77147;BME280;66121;52.584;9.694;2024-03-02T11:31:21;99553.19;;;13.72;63.22
77147;BME280;66121;52.584;9.694;2024-03-02T11:33:46;99522.63;;;13.75;62.95
77147;BME280;66121;52.584;9.694;2024-03-02T11:36:11;99547.53;;;13.43;62.98
77147;BME280;66121;52.584;9.694;2024-03-02T11:38:37;99527.72;;;13.25;62.59
77147;BME280;66121;52.584;9.694;2024-03-02T11:41:06;99536.28;;;13.50;63.38
77147;BME280;66121;52.584;9.694;2024-03-02T11:43:37;99567.38;;;13.57;64.11
77147;BME280;66121;52.584;9.694;2024-03-02T11:46:05;99536.03;;;13.25;63.14
77147;BME280;66121;52.584;9.694;2024-03-02T11:48:32;99564.38;;;13.68;63.81
77147;BME280;66121;52.584;9.694;2024-03-02T11:50:59;99563.06;;;13.73;63.41
77147;BME280;66121;52.584;9.694;2024-03-02T11:53:26;99561.72;;;13.81;63.95
77147;BME280;66121;52.584;9.694;2024-03-02T11:55:54;99498.25;;;13.67;61.77
77147;BME280;66121;52.584;9.694;2024-03-02T11:58:20;99502.59;;;13.68;62.27
77147;BME280;66121;52.584;9.694;2024-03-02T12:00:52;99503.09;;;13.79;62.04
77147;BME280;66121;52.584;9.694;2024-03-02T12:03:20;99502.28;;;14.27;61.40
77147;BME280;66121;52.584;9.694;2024-03-02T12:05:49;99484.34;;;14.31;61.52
77147;BME280;66121;52.584;9.694;2024-03-02T12:08:15;99482.59;;;14.66;61.23
77147;BME280;66121;52.584;9.694;2024-03-02T12:10:40;99475.59;;;14.61;60.79
77147;BME280;66121;52.584;9.694;2024-03-02T12:13:06;99452.19;;;14.62;59.96
77147;BME280;66121;52.584;9.694;2024-03-02T12:15:36;99407.31;;;14.64;58.60
77147;BME280;66121;52.584;9.694;2024-03-02T12:18:02;99447.34;;;14.92;59.31
77147;BME280;66121;52.584;9.694;2024-03-02T12:20:29;99423.25;;;15.01;58.52
77147;BME280;66121;52.584;9.694;2024-03-02T12:22:57;99374.56;;;14.71;56.89
77147;BME280;66121;52.584;9.694;2024-03-02T12:25:24;99382.66;;;14.53;57.30
77147;BME280;66121;52.584;9.694;2024-03-02T12:27:51;99405.47;;;14.32;58.70
77147;BME280;66121;52.584;9.694;2024-03-02T12:30:17;99387.84;;;13.94;58.40
77147;BME280;66121;52.584;9.694;2024-03-02T12:32:44;99411.47;;;13.86;58.82
77147;BME280;66121;52.584;9.694;2024-03-02T12:35:10;99434.47;;;13.99;59.15
77147;BME280;66121;52.584;9.694;2024-03-02T12:37:47;99435.94;;;14.03;59.05
77147;BME280;66121;52.584;9.694;2024-03-02T12:40:14;99406.03;;;14.40;58.05
77147;BME280;66121;52.584;9.694;2024-03-02T12:42:40;99404.28;;;14.46;58.24
77147;BME280;66121;52.584;9.694;2024-03-02T12:45:10;99412.34;;;14.81;58.15
77147;BME280;66121;52.584;9.694;2024-03-02T12:47:36;99362.56;;;15.25;56.92
77147;BME280;66121;52.584;9.694;2024-03-02T12:50:02;99338.78;;;14.86;56.48
77147;BME280;66121;52.584;9.694;2024-03-02T12:52:28;99359.81;;;15.12;56.96
77147;BME280;66121;52.584;9.694;2024-03-02T12:54:54;99337.63;;;15.46;56.09
77147;BME280;66121;52.584;9.694;2024-03-02T12:57:25;99278.34;;;15.15;54.88
77147;BME280;66121;52.584;9.694;2024-03-02T12:59:52;99332.34;;;15.02;56.11
77147;BME280;66121;52.584;9.694;2024-03-02T13:02:18;99343.00;;;15.03;56.49
77147;BME280;66121;52.584;9.694;2024-03-02T13:04:44;99362.28;;;15.70;56.14